Latest Coastal Weather Observations for South Channel Island

IDV60701

Issued at 5:42 am EDT Friday 22 February 2019 (issued every 10 minutes, with the page automatically refreshed every 10 minutes)

About coastal observations | Map of coastal stations | Coastal observations for VIC | Marine services | Other Formats
Station Details ID: 086344 Name: SOUTH CHANNEL ISLAND Lat: -38.31 Lon: 144.80 Height: 9.0 m
Data from the previous 72 hours. | See also: Recent months at South Channel Island
Date/Time
EDT
Wind Sea
Height
m
Swell Vis
km
Cloud Weather Temp
°C
Press
hPa
Rain since
9am
mm
Dir  Spd
kts
Gust
kts
Height
m
Period
s
Dir
22/05:30am SSE 9 11 - - - - - - - - - -
22/05:00am SSE 9 14 - - - - - - - - - -
22/04:30am S 10 14 - - - - - - - - - -
22/04:00am S 10 13 - - - - - - - - - -
22/03:30am S 9 10 - - - - - - - - - -
22/03:00am SSE 9 11 - - - - - - - - - -
22/02:30am S 10 13 - - - - - - - - - -
22/02:00am S 9 14 - - - - - - - - - -
22/01:30am S 10 13 - - - - - - - - - -
22/01:00am S 11 14 - - - - - - - - - -
22/12:30am S 13 15 - - - - - - - - - -
22/12:00am S 12 14 - - - - - - - - - -
 
Date/Time
EDT
Wind Sea
Height
m
Swell Vis
km
Cloud Weather Temp
°C
Press
hPa
Rain since
9am
mm
Dir  Spd
kts
Gust
kts
Height
m
Period
s
Dir
21/11:30pm S 12 14 - - - - - - - - - -
21/11:00pm S 15 17 - - - - - - - - - -
21/10:30pm SSW 14 16 - - - - - - - - - -
21/10:00pm S 11 13 - - - - - - - - - -
21/09:30pm S 12 15 - - - - - - - - - -
21/09:00pm S 12 16 - - - - - - - - - -
21/08:30pm S 14 16 - - - - - - - - - -
21/08:00pm S 15 19 - - - - - - - - - -
21/07:30pm S 15 18 - - - - - - - - - -
21/07:00pm S 13 16 - - - - - - - - - -
21/06:30pm S 13 16 - - - - - - - - - -
21/06:00pm S 17 20 - - - - - - - - - -
21/05:30pm S 16 21 - - - - - - - - - -
21/05:00pm S 15 19 - - - - - - - - - -
21/04:30pm SSW 16 19 - - - - - - - - - -
21/04:00pm SSW 16 20 - - - - - - - - - -
21/03:30pm S 15 19 - - - - - - - - - -
21/03:00pm SSW 18 21 - - - - - - - - - -
21/02:30pm SSW 17 20 - - - - - - - - - -
21/02:00pm SSW 17 20 - - - - - - - - - -
21/01:30pm SSW 15 19 - - - - - - - - - -
21/01:00pm SSW 13 17 - - - - - - - - - -
21/12:30pm SW 12 15 - - - - - - - - - -
21/12:00pm SW 15 18 - - - - - - - - - -
21/11:30am SW 13 16 - - - - - - - - - -
21/11:00am SSW 12 17 - - - - - - - - - -
21/10:30am SSW 13 17 - - - - - - - - - -
21/10:00am SW 11 14 - - - - - - - - - -
21/09:30am SW 14 16 - - - - - - - - - -
21/09:00am SSW 16 19 - - - - - - - - - -
21/08:30am SSW 13 17 - - - - - - - - - -
21/08:00am SW 14 19 - - - - - - - - - -
21/07:30am SW 16 23 - - - - - - - - - -
21/07:00am SW 15 18 - - - - - - - - - -
21/06:30am SW 14 19 - - - - - - - - - -
21/06:00am SW 16 18 - - - - - - - - - -
21/05:30am SW 16 19 - - - - - - - - - -
21/05:00am SW 16 18 - - - - - - - - - -
21/04:30am SW 15 18 - - - - - - - - - -
21/04:00am SW 10 14 - - - - - - - - - -
21/03:30am SW 13 16 - - - - - - - - - -
21/03:00am SW 16 18 - - - - - - - - - -
21/02:30am SW 15 18 - - - - - - - - - -
21/02:00am SW 14 16 - - - - - - - - - -
21/01:30am SW 16 19 - - - - - - - - - -
21/01:00am SW 17 20 - - - - - - - - - -
21/12:30am SW 18 22 - - - - - - - - - -
21/12:00am SW 15 18 - - - - - - - - - -
 
Date/Time
EDT
Wind Sea
Height
m
Swell Vis
km
Cloud Weather Temp
°C
Press
hPa
Rain since
9am
mm
Dir  Spd
kts
Gust
kts
Height
m
Period
s
Dir
20/11:30pm SW 16 20 - - - - - - - - - -
20/11:00pm SW 23 29 - - - - - - - - - -
20/10:30pm SW 23 27 - - - - - - - - - -
20/10:00pm SW 24 27 - - - - - - - - - -
20/09:30pm SW 23 28 - - - - - - - - - -
20/09:00pm SW 22 27 - - - - - - - - - -
20/08:30pm SW 19 22 - - - - - - - - - -
20/08:00pm SW 20 23 - - - - - - - - - -
20/07:30pm SSW 17 21 - - - - - - - - - -
20/07:00pm SSW 17 19 - - - - - - - - - -
20/06:30pm SSW 17 20 - - - - - - - - - -
20/06:00pm SSW 17 20 - - - - - - - - - -
20/05:30pm SSW 19 22 - - - - - - - - - -
20/05:00pm SSW 19 22 - - - - - - - - - -
20/04:30pm SSW 15 17 - - - - - - - - - -
20/04:00pm SSW 12 14 - - - - - - - - - -
20/03:30pm SSW 10 13 - - - - - - - - - -
20/03:00pm SSW 10 12 - - - - - - - - - -
20/02:30pm SW 10 13 - - - - - - - - - -
20/02:00pm W 7 9 - - - - - - - - - -
20/01:30pm WSW 8 10 - - - - - - - - - -
20/01:00pm W 12 15 - - - - - - - - - -
20/12:30pm WNW 14 16 - - - - - - - - - -
20/12:00pm W 15 17 - - - - - - - - - -
20/11:30am W 13 17 - - - - - - - - - -
20/11:00am WSW 14 17 - - - - - - - - - -
20/10:30am WSW 16 19 - - - - - - - - - -
20/10:00am W 16 18 - - - - - - - - - -
20/09:30am W 15 17 - - - - - - - - - -
20/09:00am W 15 16 - - - - - - - - - -
20/08:30am WNW 15 19 - - - - - - - - - -
20/08:00am WNW 14 16 - - - - - - - - - -
20/07:30am WNW 14 17 - - - - - - - - - -
20/07:00am WNW 13 16 - - - - - - - - - -
20/06:30am W 15 18 - - - - - - - - - -
20/06:00am W 17 18 - - - - - - - - - -
20/05:30am W 15 20 - - - - - - - - - -
20/05:00am W 11 14 - - - - - - - - - -
20/04:30am W 14 16 - - - - - - - - - -
20/04:00am WNW 16 19 - - - - - - - - - -
20/03:30am W 15 17 - - - - - - - - - -
20/03:00am W 16 18 - - - - - - - - - -
20/02:30am WSW 12 15 - - - - - - - - - -
20/02:00am WSW 12 14 - - - - - - - - - -
20/01:30am WSW 13 16 - - - - - - - - - -
20/01:00am WSW 11 14 - - - - - - - - - -
20/12:30am WSW 12 14 - - - - - - - - - -
20/12:00am SW 11 14 - - - - - - - - - -
 
Date/Time
EDT
Wind Sea
Height
m
Swell Vis
km
Cloud Weather Temp
°C
Press
hPa
Rain since
9am
mm
Dir  Spd
kts
Gust
kts
Height
m
Period
s
Dir
19/11:30pm SW 13 16 - - - - - - - - - -
19/11:00pm SSW 13 15 - - - - - - - - - -
19/10:30pm SSW 15 17 - - - - - - - - - -
19/10:00pm SSW 15 17 - - - - - - - - - -
19/09:30pm SSW 17 20 - - - - - - - - - -
19/09:00pm SSW 17 21 - - - - - - - - - -
19/08:30pm SSW 17 20 - - - - - - - - - -
19/08:00pm SSW 17 20 - - - - - - - - - -
19/07:30pm SSW 19 22 - - - - - - - - - -
19/07:00pm SSW 19 22 - - - - - - - - - -
19/06:30pm SSW 19 23 - - - - - - - - - -
19/06:00pm SSW 19 22 - - - - - - - - - -
19/05:30pm SSW 19 23 - - - - - - - - - -
19/05:00pm SSW 19 24 - - - - - - - - - -
19/04:30pm SSW 19 23 - - - - - - - - - -
19/04:00pm SSW 19 23 - - - - - - - - - -
19/03:30pm SSW 17 21 - - - - - - - - - -
19/03:00pm SSW 19 22 - - - - - - - - - -
19/02:30pm SSW 15 20 - - - - - - - - - -
19/02:00pm SSW 18 21 - - - - - - - - - -
19/01:30pm SSW 21 25 - - - - - - - - - -
19/01:00pm SW 20 23 - - - - - - - - - -
19/12:30pm SW 15 20 - - - - - - - - - -
19/12:00pm SW 11 17 - - - - - - - - - -
19/11:30am WSW 15 19 - - - - - - - - - -
19/11:00am SW 20 26 - - - - - - - - - -
19/10:49am WSW 17 26 - - - - - - - - - -
19/10:30am W 12 15 - - - - - - - - - -
19/10:00am W 10 14 - - - - - - - - - -
19/09:30am WSW 9 11 - - - - - - - - - -
19/09:00am WSW 12 15 - - - - - - - - - -
19/08:30am WSW 15 18 - - - - - - - - - -
19/08:00am W 16 20 - - - - - - - - - -
19/07:30am W 17 20 - - - - - - - - - -
19/07:00am W 15 18 - - - - - - - - - -
19/06:30am W 17 21 - - - - - - - - - -
19/06:00am WSW 15 20 - - - - - - - - - -

Other formats

Comma delimited format used in spreadsheet applications
http://www.bom.gov.au/fwo/IDV60701/IDV60701.94853.axf

JavaScript Object Notation format (JSON) in row-major order
http://www.bom.gov.au/fwo/IDV60701/IDV60701.94853.json

Data quality

Most of these data are generated automatically and are frequently updated. Quality checks on data are not normally performed. It is possible for incorrect values to appear. Refer to information at About Latest Weather Observations and please check the disclaimer before using these data.